Time;durP1;ratioP1;P1;durP2;ratioP2;P2;SDS_P1;SDS_P2;PMS_P1;PMS_P2;Temp;Humidity;BMP_temperature;BMP_pressure;BME280_temperature;BME280_humidity;BME280_pressure;Samples;Min_cycle;Max_cycle;Signal;HPM_P1;HPM_P2
2022/08/03 00:01:33;;;;;;;19.00;18.00;;;;;;;;;;5094689;28;20664;-78
2022/08/03 00:04:00;;;;;;;19.05;17.95;;;;;;;;;;5093529;28;20605;-77
2022/08/03 00:06:27;;;;;;;18.98;17.88;;;;;;;;;;5093654;28;20201;-78
2022/08/03 00:08:54;;;;;;;18.85;17.75;;;;;;;;;;5093389;28;20250;-79
2022/08/03 00:11:22;;;;;;;18.17;17.17;;;;;;;;;;5093623;28;20198;-77
2022/08/03 00:13:49;;;;;;;19.20;18.20;;;;;;;;;;5093444;28;20255;-77
2022/08/03 00:16:17;;;;;;;18.48;17.48;;;;;;;;;;5093299;28;20614;-78
2022/08/03 00:18:44;;;;;;;18.40;17.40;;;;;;;;;;5093201;28;20247;-77
2022/08/03 00:21:11;;;;;;;18.25;17.35;;;;;;;;;;5093241;28;20190;-78
2022/08/03 00:23:38;;;;;;;17.73;16.83;;;;;;;;;;5093240;28;20659;-76
2022/08/03 00:26:05;;;;;;;17.50;16.60;;;;;;;;;;5093149;28;20581;-76
2022/08/03 00:28:32;;;;;;;17.10;16.20;;;;;;;;;;5092989;28;20230;-75
2022/08/03 00:30:59;;;;;;;17.10;16.20;;;;;;;;;;5093286;28;20189;-76
2022/08/03 00:33:28;;;;;;;17.75;16.85;;;;;;;;;;5093037;28;20228;-76
2022/08/03 00:35:55;;;;;;;18.27;17.27;;;;;;;;;;5092950;28;20251;-78
2022/08/03 00:38:22;;;;;;;18.42;17.42;;;;;;;;;;5092961;28;20190;-76
2022/08/03 00:40:49;;;;;;;18.05;17.05;;;;;;;;;;5092874;28;20662;-77
2022/08/03 00:43:16;;;;;;;17.58;16.67;;;;;;;;;;5092898;28;20194;-78
2022/08/03 00:45:43;;;;;;;17.55;16.65;;;;;;;;;;5092866;28;20232;-79
2022/08/03 00:48:11;;;;;;;17.38;16.48;;;;;;;;;;5092716;28;20235;-76
2022/08/03 00:50:42;;;;;;;17.38;16.48;;;;;;;;;;5092702;28;20202;-77
2022/08/03 00:53:10;;;;;;;17.08;16.27;;;;;;;;;;5093252;28;20204;-77
2022/08/03 00:55:37;;;;;;;17.00;16.20;;;;;;;;;;5092650;28;20596;-77
2022/08/03 00:58:05;;;;;;;17.00;16.20;;;;;;;;;;5092599;28;20194;-77
2022/08/03 01:00:34;;;;;;;16.95;16.15;;;;;;;;;;5092524;28;20204;-78
2022/08/03 01:03:01;;;;;;;17.05;16.25;;;;;;;;;;5092284;28;20275;-77
2022/08/03 01:05:29;;;;;;;16.90;16.10;;;;;;;;;;5092506;28;20202;-78
2022/08/03 01:08:02;;;;;;;17.38;16.48;;;;;;;;;;5092295;28;20413;-77
2022/08/03 01:10:32;;;;;;;16.95;16.15;;;;;;;;;;5092885;28;20213;-78
2022/08/03 01:13:03;;;;;;;17.20;16.40;;;;;;;;;;5093139;28;20233;-77
2022/08/03 01:15:36;;;;;;;16.67;15.88;;;;;;;;;;5092320;28;20198;-76
2022/08/03 01:18:06;;;;;;;16.25;15.55;;;;;;;;;;5092273;28;20243;-80
2022/08/03 01:20:35;;;;;;;16.08;15.38;;;;;;;;;;5092679;28;20194;-77
2022/08/03 01:23:22;;;;;;;15.90;15.20;;;;;;;;;;5092845;28;20251;-77
2022/08/03 01:26:00;;;;;;;16.30;15.60;;;;;;;;;;5092240;28;20201;-76
2022/08/03 01:28:34;;;;;;;16.25;15.55;;;;;;;;;;5092349;28;20213;-78
2022/08/03 01:31:05;;;;;;;15.90;15.20;;;;;;;;;;5092229;28;20225;-77
2022/08/03 01:33:35;;;;;;;15.23;14.63;;;;;;;;;;5092153;28;20279;-78
2022/08/03 01:36:03;;;;;;;15.52;14.88;;;;;;;;;;5092755;28;20197;-78
2022/08/03 01:38:32;;;;;;;15.77;15.07;;;;;;;;;;5092084;28;20194;-77
2022/08/03 01:41:03;;;;;;;15.55;14.95;;;;;;;;;;5092368;28;20285;-78
2022/08/03 01:43:30;;;;;;;15.68;14.98;;;;;;;;;;5091996;28;20639;-76
2022/08/03 01:45:58;;;;;;;16.17;15.48;;;;;;;;;;5092206;28;20193;-79
2022/08/03 01:48:27;;;;;;;16.17;15.48;;;;;;;;;;5091932;28;20221;-77
2022/08/03 01:50:56;;;;;;;16.05;15.35;;;;;;;;;;5091878;28;20198;-78
2022/08/03 01:53:23;;;;;;;16.13;15.43;;;;;;;;;;5092256;28;20221;-78
2022/08/03 01:55:53;;;;;;;15.93;15.23;;;;;;;;;;5091845;28;20668;-78
2022/08/03 01:58:22;;;;;;;15.65;14.95;;;;;;;;;;5091903;28;20239;-78
2022/08/03 02:00:49;;;;;;;15.63;14.93;;;;;;;;;;5091829;28;20198;-78
2022/08/03 02:03:17;;;;;;;15.70;15.00;;;;;;;;;;5091831;28;20268;-80
2022/08/03 02:05:45;;;;;;;15.55;14.85;;;;;;;;;;5091796;28;20695;-78
2022/08/03 02:08:13;;;;;;;15.98;15.27;;;;;;;;;;5091684;28;20221;-79
2022/08/03 02:10:41;;;;;;;16.30;15.60;;;;;;;;;;5091766;28;20190;-78
2022/08/03 02:13:09;;;;;;;15.98;15.27;;;;;;;;;;5091898;28;20198;-78
2022/08/03 02:15:37;;;;;;;16.08;15.38;;;;;;;;;;5091845;28;20197;-78
2022/08/03 02:18:05;;;;;;;15.82;15.13;;;;;;;;;;5095527;28;20209;-78
2022/08/03 02:20:35;;;;;;;15.68;14.98;;;;;;;;;;5095656;28;20592;-79
2022/08/03 02:23:05;;;;;;;15.38;14.73;;;;;;;;;;5095613;28;20250;-79
2022/08/03 02:25:32;;;;;;;15.43;14.82;;;;;;;;;;5095898;28;20197;-79
2022/08/03 02:28:02;;;;;;;15.35;14.75;;;;;;;;;;5095395;28;20226;-79
2022/08/03 02:30:31;;;;;;;15.20;14.60;;;;;;;;;;5095773;28;20198;-78
2022/08/03 02:33:00;;;;;;;15.50;14.90;;;;;;;;;;5095428;28;20210;-79
2022/08/03 02:35:29;;;;;;;15.20;14.60;;;;;;;;;;5095402;28;20668;-78
2022/08/03 02:37:59;;;;;;;15.40;14.80;;;;;;;;;;5095705;28;20227;-78
2022/08/03 02:40:29;;;;;;;14.70;14.10;;;;;;;;;;5095256;28;20247;-79
2022/08/03 02:42:57;;;;;;;14.90;14.30;;;;;;;;;;5095551;28;20220;-79
2022/08/03 02:45:26;;;;;;;15.13;14.52;;;;;;;;;;5095206;28;20194;-79
2022/08/03 02:47:55;;;;;;;15.25;14.65;;;;;;;;;;5094994;28;20707;-78
2022/08/03 02:50:23;;;;;;;15.57;14.93;;;;;;;;;;5095340;28;20250;-79
2022/08/03 02:52:51;;;;;;;15.07;14.48;;;;;;;;;;5094912;28;20694;-79
2022/08/03 02:55:19;;;;;;;15.40;14.77;;;;;;;;;;5094995;28;20652;-78
2022/08/03 02:57:48;;;;;;;14.73;14.13;;;;;;;;;;5094898;28;20205;-78
2022/08/03 03:00:16;;;;;;;14.80;14.20;;;;;;;;;;5094863;28;20202;-79
2022/08/03 03:02:44;;;;;;;14.88;14.27;;;;;;;;;;5094882;28;20210;-79
2022/08/03 03:05:11;;;;;;;14.70;14.10;;;;;;;;;;5094743;28;20193;-80
2022/08/03 03:07:39;;;;;;;14.70;14.10;;;;;;;;;;5094640;28;20645;-78
2022/08/03 03:10:07;;;;;;;14.60;14.00;;;;;;;;;;5094584;28;20194;-79
2022/08/03 03:12:36;;;;;;;14.38;13.88;;;;;;;;;;5095773;28;20594;-77
2022/08/03 03:15:05;;;;;;;14.40;13.90;;;;;;;;;;5094442;28;20198;-76
2022/08/03 03:17:33;;;;;;;14.48;13.98;;;;;;;;;;5094396;28;20230;-79
2022/08/03 03:20:00;;;;;;;14.20;13.70;;;;;;;;;;5094519;28;20205;-79
2022/08/03 03:22:28;;;;;;;13.95;13.45;;;;;;;;;;5094353;28;20193;-79
2022/08/03 03:24:55;;;;;;;14.02;13.52;;;;;;;;;;5094657;28;20273;-79
2022/08/03 03:27:25;;;;;;;14.60;14.10;;;;;;;;;;5093980;28;20194;-80
2022/08/03 03:29:53;;;;;;;14.00;13.50;;;;;;;;;;5094505;28;20252;-78
2022/08/03 03:32:21;;;;;;;14.50;14.00;;;;;;;;;;5094254;28;20679;-79
2022/08/03 03:34:48;;;;;;;13.90;13.40;;;;;;;;;;5094547;28;20296;-79
2022/08/03 03:37:15;;;;;;;13.65;13.15;;;;;;;;;;5094679;28;20232;-79
2022/08/03 03:39:42;;;;;;;13.90;13.40;;;;;;;;;;5094002;28;20194;-79
2022/08/03 03:42:09;;;;;;;14.55;14.05;;;;;;;;;;5094054;28;20197;-78
2022/08/03 03:44:36;;;;;;;14.40;13.90;;;;;;;;;;5093939;28;20255;-79
2022/08/03 03:47:03;;;;;;;14.60;14.05;;;;;;;;;;5093996;28;20243;-78
2022/08/03 03:49:32;;;;;;;14.63;14.02;;;;;;;;;;5093725;28;20233;-78
2022/08/03 03:51:59;;;;;;;14.48;13.98;;;;;;;;;;5094031;28;20659;-79
2022/08/03 03:54:26;;;;;;;14.95;14.35;;;;;;;;;;5093731;28;20247;-79
2022/08/03 03:56:53;;;;;;;15.70;15.10;;;;;;;;;;5093669;28;20201;-77
2022/08/03 03:59:20;;;;;;;16.30;15.60;;;;;;;;;;5093850;28;20289;-76
2022/08/03 04:01:47;;;;;;;16.80;16.00;;;;;;;;;;5093901;28;20223;-79
2022/08/03 04:12:31;;;;;;;17.38;16.48;;;;;;;;;;5094116;28;20578;-79
2022/08/03 04:14:59;;;;;;;18.27;17.27;;;;;;;;;;5093303;28;20675;-78
2022/08/03 04:17:27;;;;;;;18.80;17.80;;;;;;;;;;5093365;28;20226;-76
2022/08/03 04:19:55;;;;;;;18.65;17.65;;;;;;;;;;5093272;28;20251;-79
2022/08/03 04:22:25;;;;;;;18.58;17.58;;;;;;;;;;5093216;28;20194;-80
2022/08/03 04:24:55;;;;;;;19.40;18.30;;;;;;;;;;5093192;28;20194;-80
2022/08/03 04:27:25;;;;;;;19.70;18.50;;;;;;;;;;5093464;28;20186;-79
2022/08/03 04:29:54;;;;;;;20.13;18.92;;;;;;;;;;5093083;28;20230;-79
2022/08/03 04:32:23;;;;;;;20.17;18.98;;;;;;;;;;5093020;28;20201;-79
2022/08/03 04:34:51;;;;;;;20.40;19.15;;;;;;;;;;5093031;28;20200;-80
2022/08/03 04:37:20;;;;;;;21.27;19.98;;;;;;;;;;5093022;28;20194;-80
2022/08/03 04:39:49;;;;;;;20.45;19.25;;;;;;;;;;5092260;28;20201;-80
2022/08/03 04:42:17;;;;;;;21.17;19.88;;;;;;;;;;5093220;28;20200;-80
2022/08/03 04:44:45;;;;;;;21.00;19.70;;;;;;;;;;5092935;28;20252;-77
2022/08/03 04:47:12;;;;;;;21.55;20.25;;;;;;;;;;5092972;28;20201;-81
2022/08/03 04:49:40;;;;;;;20.08;18.88;;;;;;;;;;5092783;28;20221;-78
2022/08/03 04:52:08;;;;;;;20.63;19.35;;;;;;;;;;5092825;28;20251;-81
2022/08/03 04:54:39;;;;;;;20.85;19.55;;;;;;;;;;5092671;28;20194;-80
2022/08/03 04:57:08;;;;;;;21.17;19.88;;;;;;;;;;5092946;28;20190;-81
2022/08/03 04:59:35;;;;;;;20.55;19.25;;;;;;;;;;5092538;28;20205;-81
2022/08/03 05:02:02;;;;;;;20.83;19.52;;;;;;;;;;5092606;28;20198;-80
2022/08/03 05:04:28;;;;;;;20.45;19.25;;;;;;;;;;5092951;28;20193;-81
2022/08/03 05:06:55;;;;;;;19.50;18.40;;;;;;;;;;5092801;28;20198;-80
2022/08/03 05:09:22;;;;;;;19.15;18.05;;;;;;;;;;5092547;28;20221;-81
2022/08/03 05:11:50;;;;;;;18.77;17.67;;;;;;;;;;5092483;28;20200;-81
2022/08/03 05:14:18;;;;;;;18.85;17.75;;;;;;;;;;5092613;28;20280;-81
2022/08/03 05:16:45;;;;;;;19.20;18.10;;;;;;;;;;5092796;28;20233;-79
2022/08/03 05:19:12;;;;;;;18.77;17.67;;;;;;;;;;5092368;28;20251;-80
2022/08/03 05:21:39;;;;;;;18.92;17.83;;;;;;;;;;5092337;28;20674;-81
2022/08/03 05:24:06;;;;;;;19.75;18.55;;;;;;;;;;5092232;28;20190;-79
2022/08/03 05:26:33;;;;;;;20.00;18.80;;;;;;;;;;5092253;28;20247;-80
2022/08/03 05:29:00;;;;;;;19.55;18.35;;;;;;;;;;5092462;28;20221;-81
2022/08/03 05:31:29;;;;;;;19.60;18.40;;;;;;;;;;5092437;28;20197;-80
2022/08/03 05:33:57;;;;;;;20.20;19.00;;;;;;;;;;5093117;28;20278;-82
2022/08/03 05:36:24;;;;;;;19.48;18.27;;;;;;;;;;5092160;28;20198;-81
2022/08/03 05:38:51;;;;;;;19.08;17.88;;;;;;;;;;5092089;28;20197;-77
2022/08/03 05:41:18;;;;;;;19.38;18.17;;;;;;;;;;5092130;28;20190;-78
2022/08/03 05:43:45;;;;;;;19.65;18.55;;;;;;;;;;5092142;28;20215;-78
2022/08/03 05:46:12;;;;;;;20.40;19.20;;;;;;;;;;5092125;28;20255;-79
2022/08/03 05:48:40;;;;;;;19.95;18.75;;;;;;;;;;5092173;28;20228;-82
2022/08/03 05:51:09;;;;;;;20.10;18.90;;;;;;;;;;5095105;28;20239;-81
2022/08/03 05:53:37;;;;;;;20.65;19.45;;;;;;;;;;5096124;28;20194;-82
2022/08/03 05:56:04;;;;;;;21.27;19.98;;;;;;;;;;5096207;28;20200;-83
2022/08/03 05:58:31;;;;;;;19.88;18.58;;;;;;;;;;5095960;28;20204;-81
2022/08/03 06:00:58;;;;;;;20.10;18.90;;;;;;;;;;5096018;28;20193;-84
2022/08/03 06:03:25;;;;;;;20.17;18.92;;;;;;;;;;5096206;28;20280;-82
2022/08/03 06:05:54;;;;;;;20.92;19.63;;;;;;;;;;5096194;28;20678;-80
2022/08/03 06:08:21;;;;;;;21.17;19.90;;;;;;;;;;5096360;28;20233;-75
2022/08/03 06:10:48;;;;;;;21.15;19.85;;;;;;;;;;5095827;28;20194;-77
2022/08/03 06:13:15;;;;;;;20.67;19.42;;;;;;;;;;5096047;28;20204;-79
2022/08/03 06:15:42;;;;;;;21.02;19.73;;;;;;;;;;5095430;28;20198;-81
2022/08/03 06:18:09;;;;;;;21.42;20.13;;;;;;;;;;5096588;28;20186;-81
2022/08/03 06:20:36;;;;;;;21.25;19.95;;;;;;;;;;5095794;28;20730;-77
2022/08/03 06:23:05;;;;;;;21.10;19.80;;;;;;;;;;5095714;28;20243;-81
2022/08/03 06:25:32;;;;;;;20.67;19.40;;;;;;;;;;5096104;28;20290;-76
2022/08/03 06:27:59;;;;;;;20.35;19.15;;;;;;;;;;5095830;28;20197;-80
2022/08/03 06:30:26;;;;;;;20.48;19.27;;;;;;;;;;5095854;28;20312;-80
2022/08/03 06:32:53;;;;;;;20.35;19.15;;;;;;;;;;5095986;28;20198;-81
2022/08/03 06:35:20;;;;;;;20.90;19.60;;;;;;;;;;5095645;28;20198;-78
2022/08/03 06:37:48;;;;;;;22.10;20.80;;;;;;;;;;5095303;28;20193;-81
2022/08/03 06:40:17;;;;;;;20.65;19.45;;;;;;;;;;5095733;28;20251;-85
2022/08/03 06:42:44;;;;;;;19.73;18.52;;;;;;;;;;5095471;28;20197;-82
2022/08/03 06:45:12;;;;;;;20.50;19.30;;;;;;;;;;5095476;28;20232;-77
2022/08/03 06:47:39;;;;;;;21.45;20.25;;;;;;;;;;5095452;28;20660;-81
2022/08/03 06:50:08;;;;;;;21.65;20.35;;;;;;;;;;5095343;28;20248;-76
2022/08/03 06:52:35;;;;;;;20.98;19.67;;;;;;;;;;5095597;28;20247;-81
2022/08/03 06:55:02;;;;;;;19.65;18.45;;;;;;;;;;5095083;28;20550;-82
2022/08/03 06:57:31;;;;;;;20.42;19.23;;;;;;;;;;5094945;28;20201;-83
2022/08/03 07:00:00;;;;;;;22.05;20.70;;;;;;;;;;5094915;28;20576;-84
2022/08/03 07:02:27;;;;;;;20.30;19.00;;;;;;;;;;5094042;28;20614;-77
2022/08/03 07:04:54;;;;;;;20.13;18.85;;;;;;;;;;5094874;28;20318;-77
2022/08/03 07:07:21;;;;;;;20.13;18.83;;;;;;;;;;5094795;28;20189;-82
2022/08/03 07:09:48;;;;;;;20.30;19.00;;;;;;;;;;5094950;28;20221;-83
2022/08/03 07:12:15;;;;;;;20.05;18.75;;;;;;;;;;5094823;28;20193;-86
2022/08/03 07:14:44;;;;;;;21.02;19.73;;;;;;;;;;5094754;28;20194;-83
2022/08/03 07:17:11;;;;;;;19.60;18.40;;;;;;;;;;5094429;28;20238;-83
2022/08/03 07:19:38;;;;;;;21.20;19.90;;;;;;;;;;5094530;28;20198;-77
2022/08/03 07:22:05;;;;;;;20.52;19.23;;;;;;;;;;5094820;28;20194;-85
2022/08/03 07:24:32;;;;;;;22.52;21.10;;;;;;;;;;5094430;28;20233;-75
2022/08/03 07:26:59;;;;;;;19.27;18.08;;;;;;;;;;5094389;28;20613;-82
2022/08/03 07:29:26;;;;;;;19.25;18.05;;;;;;;;;;5094297;28;20229;-84
2022/08/03 07:31:54;;;;;;;19.15;17.95;;;;;;;;;;5094188;28;20237;-84
2022/08/03 07:34:21;;;;;;;19.65;18.35;;;;;;;;;;5094250;28;20566;-81
2022/08/03 07:36:48;;;;;;;19.85;18.55;;;;;;;;;;5094206;28;20254;-84
2022/08/03 07:39:15;;;;;;;20.55;19.15;;;;;;;;;;5094361;28;20734;-77
2022/08/03 07:41:42;;;;;;;21.48;20.08;;;;;;;;;;5094375;28;20284;-82
2022/08/03 07:44:09;;;;;;;20.63;19.23;;;;;;;;;;5094416;28;20213;-79
2022/08/03 07:46:36;;;;;;;23.17;21.67;;;;;;;;;;5094196;28;20197;-79
2022/08/03 07:49:05;;;;;;;20.48;19.17;;;;;;;;;;5093903;28;20216;-76
2022/08/03 07:51:32;;;;;;;20.70;19.30;;;;;;;;;;5093813;28;20216;-81
2022/08/03 07:53:59;;;;;;;20.08;18.77;;;;;;;;;;5093745;28;20612;-80
2022/08/03 07:56:26;;;;;;;20.75;19.45;;;;;;;;;;5093914;28;20233;-77
2022/08/03 07:58:54;;;;;;;22.25;20.85;;;;;;;;;;5094549;28;20198;-81
2022/08/03 08:01:21;;;;;;;20.17;18.88;;;;;;;;;;5093746;28;20197;-81
2022/08/03 08:03:48;;;;;;;19.60;18.40;;;;;;;;;;5093844;28;20200;-75
2022/08/03 08:06:17;;;;;;;21.08;19.77;;;;;;;;;;5093780;28;20221;-77
2022/08/03 08:08:44;;;;;;;19.88;18.67;;;;;;;;;;5093517;28;20194;-79
2022/08/03 08:11:11;;;;;;;20.38;19.08;;;;;;;;;;5093693;28;20222;-79
2022/08/03 08:13:38;;;;;;;21.73;20.33;;;;;;;;;;5094123;28;20197;-82
2022/08/03 08:16:05;;;;;;;21.92;20.52;;;;;;;;;;5093185;28;20230;-79
2022/08/03 08:18:33;;;;;;;23.55;22.05;;;;;;;;;;5093749;28;20587;-83
2022/08/03 08:21:02;;;;;;;21.05;19.75;;;;;;;;;;5093296;28;20194;-81
2022/08/03 08:23:30;;;;;;;22.52;21.13;;;;;;;;;;5093182;28;20671;-84
2022/08/03 08:25:57;;;;;;;21.13;19.83;;;;;;;;;;5093353;28;20281;-84
2022/08/03 08:28:24;;;;;;;21.08;19.77;;;;;;;;;;5093449;28;20280;-76
2022/08/03 08:30:51;;;;;;;23.52;22.10;;;;;;;;;;5093031;28;20236;-78
2022/08/03 08:33:18;;;;;;;20.15;18.95;;;;;;;;;;5093123;28;20210;-77
2022/08/03 08:35:45;;;;;;;20.02;18.83;;;;;;;;;;5093542;28;20197;-81
2022/08/03 08:38:12;;;;;;;18.80;17.70;;;;;;;;;;5093229;28;20247;-79
2022/08/03 08:40:41;;;;;;;19.30;18.10;;;;;;;;;;5093326;28;20197;-84
2022/08/03 08:43:08;;;;;;;19.58;18.38;;;;;;;;;;5092857;28;20194;-86
2022/08/03 08:45:35;;;;;;;19.60;18.40;;;;;;;;;;5092921;28;20228;-80
2022/08/03 08:48:03;;;;;;;21.88;20.48;;;;;;;;;;5091819;28;20197;-83
2022/08/03 08:50:30;;;;;;;21.75;20.35;;;;;;;;;;5092965;28;20230;-83
2022/08/03 08:53:00;;;;;;;21.85;20.45;;;;;;;;;;5091739;28;20656;-84
2022/08/03 08:55:27;;;;;;;21.90;20.50;;;;;;;;;;5093355;28;20186;-77
2022/08/03 08:57:58;;;;;;;22.40;21.00;;;;;;;;;;5092575;28;20285;-76
2022/08/03 09:00:25;;;;;;;21.80;20.40;;;;;;;;;;5092594;28;20194;-77
2022/08/03 09:02:52;;;;;;;23.17;21.77;;;;;;;;;;5092490;28;20201;-78
2022/08/03 09:05:19;;;;;;;22.48;21.08;;;;;;;;;;5092837;28;20193;-78
2022/08/03 09:07:47;;;;;;;21.55;20.25;;;;;;;;;;5092512;28;20201;-80
2022/08/03 09:10:17;;;;;;;21.70;20.40;;;;;;;;;;5092438;28;20237;-80
2022/08/03 09:12:46;;;;;;;21.95;20.63;;;;;;;;;;5092417;28;20194;-85
2022/08/03 09:15:24;;;;;;;21.75;20.45;;;;;;;;;;5092309;28;20206;-81
2022/08/03 09:17:52;;;;;;;22.02;20.65;;;;;;;;;;5092385;28;20675;-79
2022/08/03 09:20:20;;;;;;;21.50;20.20;;;;;;;;;;5092333;28;20716;-80
2022/08/03 09:22:54;;;;;;;23.00;21.60;;;;;;;;;;5092210;28;20202;-79
2022/08/03 09:25:27;;;;;;;20.65;19.35;;;;;;;;;;5091765;28;20252;-83
2022/08/03 09:27:54;;;;;;;23.67;22.17;;;;;;;;;;5092183;28;20225;-81
2022/08/03 09:30:21;;;;;;;22.60;21.20;;;;;;;;;;5092055;28;20233;-77
2022/08/03 09:32:49;;;;;;;22.13;20.73;;;;;;;;;;5092063;28;20660;-81
2022/08/03 09:35:16;;;;;;;20.35;19.05;;;;;;;;;;5092017;28;20735;-81
2022/08/03 09:37:43;;;;;;;20.55;19.25;;;;;;;;;;5092102;28;20197;-79
2022/08/03 09:40:10;;;;;;;21.50;20.15;;;;;;;;;;5092006;28;20659;-76
2022/08/03 09:42:38;;;;;;;20.65;19.35;;;;;;;;;;5092003;28;20194;-78
2022/08/03 09:45:05;;;;;;;20.45;19.15;;;;;;;;;;5092241;28;20284;-79
2022/08/03 09:47:33;;;;;;;20.80;19.50;;;;;;;;;;5091943;28;20280;-79
2022/08/03 09:50:02;;;;;;;20.88;19.58;;;;;;;;;;5091872;28;20225;-76
2022/08/03 09:52:32;;;;;;;21.02;19.73;;;;;;;;;;5091878;28;20193;-77
2022/08/03 09:55:00;;;;;;;24.05;22.55;;;;;;;;;;5092240;28;20277;-79
2022/08/03 09:57:29;;;;;;;23.73;22.25;;;;;;;;;;5092137;28;20284;-81
2022/08/03 10:00:06;;;;;;;23.55;22.15;;;;;;;;;;5091806;28;20193;-80
2022/08/03 10:02:33;;;;;;;23.17;21.77;;;;;;;;;;5091853;28;20277;-82
2022/08/03 10:05:01;;;;;;;22.30;20.90;;;;;;;;;;5091806;28;20671;-79
2022/08/03 10:07:28;;;;;;;23.50;22.10;;;;;;;;;;5091812;28;20205;-80
2022/08/03 10:09:56;;;;;;;23.90;22.50;;;;;;;;;;5091674;28;20237;-82
2022/08/03 10:12:24;;;;;;;26.35;24.75;;;;;;;;;;5091870;28;20229;-79
2022/08/03 10:14:51;;;;;;;26.40;24.80;;;;;;;;;;5091661;28;20572;-82
2022/08/03 10:17:18;;;;;;;24.05;22.65;;;;;;;;;;5091454;28;20226;-80
2022/08/03 10:19:46;;;;;;;24.90;23.20;;;;;;;;;;5091636;28;20194;-82
2022/08/03 10:22:15;;;;;;;27.63;25.73;;;;;;;;;;5091878;28;20614;-78
2022/08/03 10:24:48;;;;;;;28.15;26.15;;;;;;;;;;5091763;28;20191;-81
2022/08/03 10:27:15;;;;;;;35.30;32.60;;;;;;;;;;5091561;28;20190;-76
2022/08/03 10:29:43;;;;;;;31.27;28.98;;;;;;;;;;5091533;28;20232;-80
2022/08/03 10:32:14;;;;;;;30.67;28.48;;;;;;;;;;5091779;28;20198;-78
2022/08/03 10:34:42;;;;;;;26.15;24.25;;;;;;;;;;5092646;28;20194;-75
2022/08/03 10:37:10;;;;;;;27.88;26.10;;;;;;;;;;5092857;28;20664;-77
2022/08/03 10:39:52;;;;;;;26.73;25.13;;;;;;;;;;5095980;28;20197;-73
2022/08/03 10:42:21;;;;;;;28.13;26.33;;;;;;;;;;5095137;28;20243;-77
2022/08/03 10:44:48;;;;;;;26.98;25.05;;;;;;;;;;5095271;28;20189;-73
2022/08/03 10:47:15;;;;;;;29.73;27.42;;;;;;;;;;5095179;28;20198;-74
2022/08/03 10:49:42;;;;;;;26.17;24.27;;;;;;;;;;5094948;28;20648;-73
2022/08/03 10:52:09;;;;;;;23.73;22.13;;;;;;;;;;5095148;28;20200;-79
2022/08/03 10:57:37;;;;;;;21.20;19.90;;;;;;;;;;5094825;28;20186;-74
2022/08/03 11:00:05;;;;;;;21.90;20.50;;;;;;;;;;5093214;28;20197;-73
2022/08/03 11:02:50;;;;;;;21.98;20.58;;;;;;;;;;5094712;28;20678;-73
2022/08/03 11:05:27;;;;;;;25.65;24.15;;;;;;;;;;5094700;28;20193;-78
2022/08/03 11:08:09;;;;;;;20.85;19.65;;;;;;;;;;5094823;28;20185;-80
2022/08/03 11:10:37;;;;;;;20.33;19.13;;;;;;;;;;5094392;28;20225;-74
2022/08/03 11:13:06;;;;;;;21.00;19.70;;;;;;;;;;5094519;28;20207;-80
2022/08/03 11:15:34;;;;;;;21.08;19.77;;;;;;;;;;5094533;28;20573;-78
2022/08/03 11:18:09;;;;;;;20.65;19.45;;;;;;;;;;5094527;28;20230;-75
2022/08/03 11:20:49;;;;;;;19.58;18.48;;;;;;;;;;5094396;28;20659;-74
2022/08/03 11:23:16;;;;;;;22.35;21.05;;;;;;;;;;5094331;28;20254;-77
2022/08/03 11:26:02;;;;;;;20.25;19.00;;;;;;;;;;5094293;28;20194;-81
2022/08/03 11:28:32;;;;;;;20.70;19.40;;;;;;;;;;5094257;28;20655;-80
2022/08/03 11:31:14;;;;;;;20.55;19.25;;;;;;;;;;5094472;28;20640;-74
2022/08/03 11:33:41;;;;;;;23.35;21.95;;;;;;;;;;5094527;28;20265;-82
2022/08/03 11:36:08;;;;;;;24.60;23.00;;;;;;;;;;5094166;28;20189;-76
2022/08/03 11:38:35;;;;;;;24.67;23.08;;;;;;;;;;5094374;28;20202;-77
2022/08/03 11:41:02;;;;;;;26.17;24.38;;;;;;;;;;5094325;28;20221;-80
2022/08/03 11:43:46;;;;;;;28.35;26.35;;;;;;;;;;5093992;28;20299;-83
2022/08/03 11:46:17;;;;;;;25.08;23.25;;;;;;;;;;5093877;28;20277;-77
2022/08/03 11:48:45;;;;;;;25.15;23.25;;;;;;;;;;5093590;28;20272;-79
2022/08/03 11:51:22;;;;;;;25.45;23.55;;;;;;;;;;5093913;28;20225;-80
2022/08/03 11:53:52;;;;;;;25.33;23.42;;;;;;;;;;5094045;28;20197;-78
2022/08/03 11:56:19;;;;;;;24.80;22.90;;;;;;;;;;5093848;28;20275;-79
2022/08/03 11:58:52;;;;;;;26.67;24.73;;;;;;;;;;5094004;28;20319;-82
2022/08/03 12:01:19;;;;;;;26.55;24.55;;;;;;;;;;5093939;28;20219;-82
2022/08/03 12:03:47;;;;;;;23.88;22.08;;;;;;;;;;5093789;28;20202;-74
2022/08/03 12:06:14;;;;;;;23.25;21.45;;;;;;;;;;5093865;28;20277;-84
2022/08/03 12:08:42;;;;;;;23.08;21.35;;;;;;;;;;5093791;28;20194;-81
2022/08/03 12:11:10;;;;;;;22.30;20.60;;;;;;;;;;5093456;28;20225;-79
2022/08/03 12:13:38;;;;;;;22.17;20.48;;;;;;;;;;5093454;28;20204;-81
2022/08/03 12:16:07;;;;;;;24.85;23.00;;;;;;;;;;5093419;28;20271;-82
2022/08/03 12:18:35;;;;;;;21.92;20.23;;;;;;;;;;5093710;28;20258;-82
2022/08/03 12:21:06;;;;;;;22.23;20.52;;;;;;;;;;5093597;28;20204;-80
2022/08/03 12:23:33;;;;;;;21.13;19.52;;;;;;;;;;5093498;28;20263;-80
2022/08/03 12:26:04;;;;;;;22.80;21.10;;;;;;;;;;5093374;28;20276;-78
2022/08/03 12:28:31;;;;;;;23.23;21.52;;;;;;;;;;5093173;28;20189;-78
2022/08/03 12:31:01;;;;;;;21.63;20.02;;;;;;;;;;5093295;28;20305;-78
2022/08/03 12:33:30;;;;;;;22.30;20.60;;;;;;;;;;5093080;28;20186;-83
2022/08/03 12:36:04;;;;;;;22.55;20.85;;;;;;;;;;5092922;28;20204;-78
2022/08/03 12:38:32;;;;;;;21.35;19.75;;;;;;;;;;5093050;28;20197;-83
2022/08/03 12:41:00;;;;;;;22.17;20.52;;;;;;;;;;5092880;28;20290;-77
2022/08/03 12:43:27;;;;;;;24.90;23.10;;;;;;;;;;5092764;28;20200;-81
2022/08/03 12:46:10;;;;;;;26.27;24.48;;;;;;;;;;5093215;28;20198;-82
2022/08/03 12:48:55;;;;;;;23.27;21.65;;;;;;;;;;5092720;28;20277;-80
2022/08/03 12:51:22;;;;;;;20.88;19.38;;;;;;;;;;5092613;28;20217;-83
2022/08/03 12:53:52;;;;;;;21.50;19.90;;;;;;;;;;5092638;28;20204;-82
2022/08/03 12:56:20;;;;;;;20.90;19.40;;;;;;;;;;5092591;28;20186;-77
2022/08/03 12:58:49;;;;;;;20.83;19.33;;;;;;;;;;5093152;28;20279;-80
2022/08/03 13:01:16;;;;;;;22.13;20.58;;;;;;;;;;5091939;28;20194;-76
2022/08/03 13:03:45;;;;;;;21.10;19.60;;;;;;;;;;5093059;28;20208;-76
2022/08/03 13:06:13;;;;;;;20.30;18.80;;;;;;;;;;5092729;28;20676;-80
2022/08/03 13:08:40;;;;;;;21.00;19.50;;;;;;;;;;5092872;28;20221;-82
2022/08/03 13:11:20;;;;;;;20.40;18.90;;;;;;;;;;5092320;28;20235;-81
2022/08/03 13:13:47;;;;;;;20.65;19.15;;;;;;;;;;5092507;28;20741;-80
2022/08/03 13:16:14;;;;;;;22.10;20.60;;;;;;;;;;5092257;28;20607;-77
2022/08/03 13:18:41;;;;;;;21.58;20.08;;;;;;;;;;5092529;28;20788;-79
2022/08/03 13:21:11;;;;;;;21.15;19.65;;;;;;;;;;5092223;28;20253;-78
2022/08/03 13:23:38;;;;;;;22.02;20.42;;;;;;;;;;5092195;28;20198;-80
2022/08/03 13:26:05;;;;;;;21.88;20.27;;;;;;;;;;5092100;28;20284;-78
2022/08/03 13:28:32;;;;;;;20.67;19.17;;;;;;;;;;5092175;28;20201;-81
2022/08/03 13:30:59;;;;;;;20.55;19.05;;;;;;;;;;5092025;28;20308;-83
2022/08/03 13:33:27;;;;;;;20.02;18.60;;;;;;;;;;5092111;28;20193;-79
2022/08/03 13:35:54;;;;;;;20.42;18.92;;;;;;;;;;5092082;28;20194;-80
2022/08/03 13:38:22;;;;;;;20.42;18.92;;;;;;;;;;5092012;28;20554;-78
2022/08/03 13:40:51;;;;;;;20.27;18.77;;;;;;;;;;5092018;28;20253;-74
2022/08/03 13:43:18;;;;;;;20.55;19.05;;;;;;;;;;5092168;28;20736;-80
2022/08/03 13:45:45;;;;;;;20.33;18.83;;;;;;;;;;5092066;28;20190;-73
2022/08/03 13:48:12;;;;;;;21.00;19.50;;;;;;;;;;5093308;28;20239;-76
2022/08/03 13:50:39;;;;;;;20.92;19.42;;;;;;;;;;5091917;28;20198;-78
2022/08/03 13:53:06;;;;;;;21.02;19.52;;;;;;;;;;5091979;28;20721;-76
2022/08/03 13:55:34;;;;;;;20.98;19.48;;;;;;;;;;5091823;28;20189;-76
2022/08/03 13:58:01;;;;;;;21.02;19.52;;;;;;;;;;5091887;28;20568;-77
2022/08/03 14:00:28;;;;;;;20.92;19.42;;;;;;;;;;5091802;28;20198;-76
2022/08/03 14:02:56;;;;;;;20.70;19.30;;;;;;;;;;5091848;28;20194;-78
2022/08/03 14:05:23;;;;;;;21.02;19.52;;;;;;;;;;5091809;28;20225;-79
2022/08/03 14:07:50;;;;;;;21.58;20.08;;;;;;;;;;5091770;28;20201;-75
2022/08/03 14:10:18;;;;;;;21.50;20.00;;;;;;;;;;5091766;28;20603;-78
2022/08/03 14:12:46;;;;;;;22.58;20.98;;;;;;;;;;5095435;28;20696;-76
2022/08/03 14:15:13;;;;;;;22.90;21.30;;;;;;;;;;5095730;28;20190;-78
2022/08/03 14:17:41;;;;;;;20.67;19.17;;;;;;;;;;5095614;28;20594;-77
2022/08/03 14:20:08;;;;;;;21.35;19.85;;;;;;;;;;5095544;28;20672;-74
2022/08/03 14:22:35;;;;;;;21.13;19.63;;;;;;;;;;5095771;28;20193;-79
2022/08/03 14:25:02;;;;;;;21.73;20.23;;;;;;;;;;5095382;28;20189;-76
2022/08/03 14:27:29;;;;;;;20.02;18.63;;;;;;;;;;5096047;28;20198;-76
2022/08/03 14:30:00;;;;;;;20.02;18.63;;;;;;;;;;5095377;28;20240;-76
2022/08/03 14:32:27;;;;;;;20.10;18.70;;;;;;;;;;5095343;28;20209;-78
2022/08/03 14:34:54;;;;;;;21.83;20.23;;;;;;;;;;5095321;28;20651;-75